sensor_id;sensor_type;location;lat;lon;timestamp;pressure;altitude;pressure_sealevel;temperature;humidity
76044;BME280;64740;34.694;33.088;2023-04-25T00:01:43;1036.4;;;20.9;47.7
76044;BME280;64740;34.694;33.088;2023-04-25T00:06:21;1036.4;;;20.9;47.8
76044;BME280;64740;34.694;33.088;2023-04-25T00:11:45;1036.4;;;21;47.6
76044;BME280;64740;34.694;33.088;2023-04-25T00:16:35;1036.4;;;20.9;47.4
76044;BME280;64740;34.694;33.088;2023-04-25T00:21:41;1036.4;;;20.9;47.3
76044;BME280;64740;34.694;33.088;2023-04-25T00:26:11;1036.5;;;20.8;47.4
76044;BME280;64740;34.694;33.088;2023-04-25T00:31:55;1036.5;;;20.8;47.1
76044;BME280;64740;34.694;33.088;2023-04-25T00:36:53;1036.5;;;20.6;47.4
76044;BME280;64740;34.694;33.088;2023-04-25T00:41:11;1036.5;;;20.4;47.5
76044;BME280;64740;34.694;33.088;2023-04-25T00:46:21;1036.5;;;20.3;47.9
76044;BME280;64740;34.694;33.088;2023-04-25T00:51:43;1036.5;;;20.3;47.9
76044;BME280;64740;34.694;33.088;2023-04-25T00:56:23;1036.6;;;20.3;47.9
76044;BME280;64740;34.694;33.088;2023-04-25T01:01:19;1036.6;;;20.3;48.1
76044;BME280;64740;34.694;33.088;2023-04-25T01:06:55;1036.6;;;20.4;47.9
76044;BME280;64740;34.694;33.088;2023-04-25T01:11:11;1036.6;;;20.4;47.6
76044;BME280;64740;34.694;33.088;2023-04-25T01:16:29;1036.6;;;20.4;47.6
76044;BME280;64740;34.694;33.088;2023-04-25T01:21:12;1036.6;;;20.4;47.5
76044;BME280;64740;34.694;33.088;2023-04-25T01:26:39;1036.6;;;20.3;47.2
76044;BME280;64740;34.694;33.088;2023-04-25T01:31:35;1036.6;;;20.3;47.4
76044;BME280;64740;34.694;33.088;2023-04-25T01:36:21;1036.6;;;20.4;47.3
76044;BME280;64740;34.694;33.088;2023-04-25T01:41:31;1036.7;;;20.4;47.1
76044;BME280;64740;34.694;33.088;2023-04-25T01:46:43;1036.7;;;20.5;47
76044;BME280;64740;34.694;33.088;2023-04-25T01:51:11;1036.7;;;20.6;46.8
76044;BME280;64740;34.694;33.088;2023-04-25T01:56:36;1036.7;;;20.7;46.5
76044;BME280;64740;34.694;33.088;2023-04-25T02:01:31;1036.7;;;20.8;46.6
76044;BME280;64740;34.694;33.088;2023-04-25T02:06:11;1036.7;;;20.8;46.3
76044;BME280;64740;34.694;33.088;2023-04-25T02:11:52;1036.7;;;20.8;46.3
76044;BME280;64740;34.694;33.088;2023-04-25T02:16:53;1036.8;;;20.8;46.1
76044;BME280;64740;34.694;33.088;2023-04-25T02:21:23;1036.8;;;20.8;46
76044;BME280;64740;34.694;33.088;2023-04-25T02:26:53;1036.8;;;20.8;45.8
76044;BME280;64740;34.694;33.088;2023-04-25T02:31:21;1036.9;;;20.8;45.6
76044;BME280;64740;34.694;33.088;2023-04-25T02:36:23;1036.9;;;20.8;45.5
76044;BME280;64740;34.694;33.088;2023-04-25T02:41:13;1036.9;;;20.8;45.6
76044;BME280;64740;34.694;33.088;2023-04-25T02:46:55;1036.9;;;20.7;45.1
76044;BME280;64740;34.694;33.088;2023-04-25T02:51:11;1036.9;;;20.5;45.5
76044;BME280;64740;34.694;33.088;2023-04-25T02:56:53;1036.9;;;20.5;45.6
76044;BME280;64740;34.694;33.088;2023-04-25T03:01:53;1036.9;;;20.4;45.6
76044;BME280;64740;34.694;33.088;2023-04-25T03:06:45;1036.9;;;20.4;45.6
76044;BME280;64740;34.694;33.088;2023-04-25T03:11:31;1036.9;;;20.4;45.6
76044;BME280;64740;34.694;33.088;2023-04-25T03:16:45;1036.9;;;20.4;45.5
76044;BME280;64740;34.694;33.088;2023-04-25T03:21:32;1037;;;20.3;45.6
76044;BME280;64740;34.694;33.088;2023-04-25T03:26:35;1037.1;;;20.3;45.7
76044;BME280;64740;34.694;33.088;2023-04-25T03:31:33;1037.1;;;20.2;45.7
76044;BME280;64740;34.694;33.088;2023-04-25T03:36:53;1037.2;;;20.2;46
76044;BME280;64740;34.694;33.088;2023-04-25T03:41:39;1037.3;;;20.3;46
76044;BME280;64740;34.694;33.088;2023-04-25T03:46:23;1037.3;;;20.3;45.7
76044;BME280;64740;34.694;33.088;2023-04-25T03:51:45;1037.3;;;20.4;45.7
76044;BME280;64740;34.694;33.088;2023-04-25T03:56:25;1037.4;;;20.5;45.9
76044;BME280;64740;34.694;33.088;2023-04-25T04:01:11;1037.4;;;20.6;45.7
76044;BME280;64740;34.694;33.088;2023-04-25T04:06:43;1037.5;;;20.7;45.6
76044;BME280;64740;34.694;33.088;2023-04-25T04:11:45;1037.5;;;20.8;45.5
76044;BME280;64740;34.694;33.088;2023-04-25T04:16:11;1037.5;;;20.9;45.2
76044;BME280;64740;34.694;33.088;2023-04-25T04:21:53;1037.5;;;21;45.1
76044;BME280;64740;34.694;33.088;2023-04-25T04:26:33;1037.5;;;21;45.1
76044;BME280;64740;34.694;33.088;2023-04-25T04:31:11;1037.5;;;20.9;45.7
76044;BME280;64740;34.694;33.088;2023-04-25T04:36:55;1037.5;;;20.9;46
76044;BME280;64740;34.694;33.088;2023-04-25T04:41:53;1037.6;;;20.9;46.2
76044;BME280;64740;34.694;33.088;2023-04-25T04:46:21;1037.7;;;21;46.5
76044;BME280;64740;34.694;33.088;2023-04-25T04:51:41;1037.6;;;21.2;46.5
76044;BME280;64740;34.694;33.088;2023-04-25T04:56:41;1037.5;;;21.3;46.6
76044;BME280;64740;34.694;33.088;2023-04-25T05:01:46;1037.5;;;21.5;46.8
76044;BME280;64740;34.694;33.088;2023-04-25T05:06:21;1037.5;;;21.7;46.9
76044;BME280;64740;34.694;33.088;2023-04-25T05:11:31;1037.6;;;21.9;47.4
76044;BME280;64740;34.694;33.088;2023-04-25T05:16:55;1037.6;;;22.1;48.2
76044;BME280;64740;34.694;33.088;2023-04-25T05:21:51;1037.6;;;22.2;48.1
76044;BME280;64740;34.694;33.088;2023-04-25T05:26:21;1037.5;;;22.3;48
76044;BME280;64740;34.694;33.088;2023-04-25T05:31:55;1037.5;;;22.4;48
76044;BME280;64740;34.694;33.088;2023-04-25T05:36:11;1037.5;;;22.4;48.2
76044;BME280;64740;34.694;33.088;2023-04-25T05:41:33;1037.5;;;22.6;47.7
76044;BME280;64740;34.694;33.088;2023-04-25T05:46:35;1037.5;;;22.7;46.5
76044;BME280;64740;34.694;33.088;2023-04-25T05:51:47;1037.6;;;22.8;45.8
76044;BME280;64740;34.694;33.088;2023-04-25T05:56:11;1037.6;;;22.9;45.7
76044;BME280;64740;34.694;33.088;2023-04-25T06:01:53;1037.6;;;23;45.6
76044;BME280;64740;34.694;33.088;2023-04-25T06:06:53;1037.6;;;23.1;46.1
76044;BME280;64740;34.694;33.088;2023-04-25T06:11:13;1037.6;;;23.2;46.2
76044;BME280;64740;34.694;33.088;2023-04-25T06:16:23;1037.7;;;23.3;46
76044;BME280;64740;34.694;33.088;2023-04-25T06:21:45;1037.7;;;23.4;45.7
76044;BME280;64740;34.694;33.088;2023-04-25T06:26:41;1037.8;;;23.5;45
76044;BME280;64740;34.694;33.088;2023-04-25T06:31:41;1037.8;;;23.6;44.3
76044;BME280;64740;34.694;33.088;2023-04-25T06:36:21;1037.8;;;23.6;44.5
76044;BME280;64740;34.694;33.088;2023-04-25T06:41:47;1037.8;;;23.7;45.1
76044;BME280;64740;34.694;33.088;2023-04-25T06:46:41;1037.8;;;23.8;46
76044;BME280;64740;34.694;33.088;2023-04-25T06:51:31;1037.8;;;23.8;46.7
76044;BME280;64740;34.694;33.088;2023-04-25T06:56:21;1037.8;;;23.9;47.9
76044;BME280;64740;34.694;33.088;2023-04-25T07:01:39;1037.8;;;23.9;48.8
76044;BME280;64740;34.694;33.088;2023-04-25T07:06:11;1037.9;;;23.8;48.9
76044;BME280;64740;34.694;33.088;2023-04-25T07:11:45;1037.9;;;23.7;49.3
76044;BME280;64740;34.694;33.088;2023-04-25T07:16:47;1037.9;;;23.7;49.5
76044;BME280;64740;34.694;33.088;2023-04-25T07:21:17;1037.9;;;23.7;49.7
76044;BME280;64740;34.694;33.088;2023-04-25T07:26:57;1037.9;;;23.6;50
76044;BME280;64740;34.694;33.088;2023-04-25T07:31:33;1038;;;23.6;50.4
76044;BME280;64740;34.694;33.088;2023-04-25T07:36:23;1038;;;23.5;50.7
76044;BME280;64740;34.694;33.088;2023-04-25T07:41:43;1038;;;23.5;51
76044;BME280;64740;34.694;33.088;2023-04-25T07:46:55;1038.1;;;23.5;51.2
76044;BME280;64740;34.694;33.088;2023-04-25T07:51:35;1038.1;;;23.5;51.2
76044;BME280;64740;34.694;33.088;2023-04-25T07:56:43;1038.2;;;23.5;51.5
76044;BME280;64740;34.694;33.088;2023-04-25T08:01:41;1038.2;;;23.6;51.3
76044;BME280;64740;34.694;33.088;2023-04-25T08:06:47;1038.3;;;23.6;51.5
76044;BME280;64740;34.694;33.088;2023-04-25T08:11:29;1038.3;;;23.6;51.7
76044;BME280;64740;34.694;33.088;2023-04-25T08:16:23;1038.2;;;23.6;51.6
76044;BME280;64740;34.694;33.088;2023-04-25T08:21:55;1038.3;;;23.6;51.5
76044;BME280;64740;34.694;33.088;2023-04-25T08:26:55;1038.3;;;23.6;51.3
76044;BME280;64740;34.694;33.088;2023-04-25T08:31:33;1038.4;;;23.6;50.7
76044;BME280;64740;34.694;33.088;2023-04-25T08:36:57;1038.4;;;23.6;50.6
76044;BME280;64740;34.694;33.088;2023-04-25T08:41:34;1038.4;;;23.7;49.2
76044;BME280;64740;34.694;33.088;2023-04-25T08:46:11;1038.3;;;23.8;48.3
76044;BME280;64740;34.694;33.088;2023-04-25T08:51:13;1038.3;;;23.9;47.6
76044;BME280;64740;34.694;33.088;2023-04-25T08:56:58;1038.3;;;24.1;47
76044;BME280;64740;34.694;33.088;2023-04-25T09:01:23;1038.3;;;24.2;47
76044;BME280;64740;34.694;33.088;2023-04-25T09:06:30;1038.3;;;24.3;47.9
76044;BME280;64740;34.694;33.088;2023-04-25T09:11:54;1038.2;;;24.4;48.3
76044;BME280;64740;34.694;33.088;2023-04-25T09:16:16;1038.1;;;24.5;48.3
76044;BME280;64740;34.694;33.088;2023-04-25T09:21:29;1038.1;;;24.5;47.3
76044;BME280;64740;34.694;33.088;2023-04-25T09:26:31;1038;;;24.5;47.4
76044;BME280;64740;34.694;33.088;2023-04-25T09:32:06;1038;;;24.5;47
76044;BME280;64740;34.694;33.088;2023-04-25T09:36:25;1038;;;24.6;47.7
76044;BME280;64740;34.694;33.088;2023-04-25T09:41:22;1037.9;;;24.7;47.4
76044;BME280;64740;34.694;33.088;2023-04-25T09:46:55;1037.9;;;24.8;48.1
76044;BME280;64740;34.694;33.088;2023-04-25T09:51:41;1037.9;;;24.9;47.6
76044;BME280;64740;34.694;33.088;2023-04-25T09:56:12;1037.9;;;25;46.9
76044;BME280;64740;34.694;33.088;2023-04-25T10:01:35;1037.9;;;25;46.7
76044;BME280;64740;34.694;33.088;2023-04-25T10:06:42;1037.9;;;25;46.5
76044;BME280;64740;34.694;33.088;2023-04-25T10:11:23;1037.9;;;25.1;46.5
76044;BME280;64740;34.694;33.088;2023-04-25T10:16:23;1037.9;;;25;46.1
76044;BME280;64740;34.694;33.088;2023-04-25T10:21:48;1037.9;;;25.2;46.1
76044;BME280;64740;34.694;33.088;2023-04-25T10:26:19;1037.9;;;25.4;45.5
76044;BME280;64740;34.694;33.088;2023-04-25T10:31:57;1037.9;;;25.6;45.1
76044;BME280;64740;34.694;33.088;2023-04-25T10:36:33;1037.9;;;25.9;44.6
76044;BME280;64740;34.694;33.088;2023-04-25T10:42:07;1037.9;;;26;44.1
76044;BME280;64740;34.694;33.088;2023-04-25T10:46:41;1037.8;;;26.1;44.4
76044;BME280;64740;34.694;33.088;2023-04-25T10:52:10;1037.7;;;26.2;44.7
76044;BME280;64740;34.694;33.088;2023-04-25T10:56:36;1037.7;;;26.3;45
76044;BME280;64740;34.694;33.088;2023-04-25T11:01:46;1037.7;;;26.4;44.2
76044;BME280;64740;34.694;33.088;2023-04-25T11:06:45;1037.6;;;26.3;43.7
76044;BME280;64740;34.694;33.088;2023-04-25T11:11:47;1037.6;;;26.3;44
76044;BME280;64740;34.694;33.088;2023-04-25T11:16:31;1037.5;;;26.4;43.8
76044;BME280;64740;34.694;33.088;2023-04-25T11:21:31;1037.4;;;26.6;43.8
76044;BME280;64740;34.694;33.088;2023-04-25T11:26:56;1037.4;;;26.6;43.2
76044;BME280;64740;34.694;33.088;2023-04-25T11:31:58;1037.3;;;26.9;42.9
76044;BME280;64740;34.694;33.088;2023-04-25T11:36:22;1037.2;;;27.3;40.9
76044;BME280;64740;34.694;33.088;2023-04-25T11:41:58;1037.2;;;27.4;40.2
76044;BME280;64740;34.694;33.088;2023-04-25T11:46:21;1037.1;;;27.6;39.7
76044;BME280;64740;34.694;33.088;2023-04-25T11:51:23;1037.1;;;27.6;39.3
76044;BME280;64740;34.694;33.088;2023-04-25T11:56:33;1037;;;27.7;38.8
76044;BME280;64740;34.694;33.088;2023-04-25T12:01:54;1037;;;27.9;37.7
76044;BME280;64740;34.694;33.088;2023-04-25T12:06:36;1036.9;;;27.9;36.2
76044;BME280;64740;34.694;33.088;2023-04-25T12:11:30;1036.9;;;28.1;36.2
76044;BME280;64740;34.694;33.088;2023-04-25T12:16:56;1036.9;;;28.2;36.2
76044;BME280;64740;34.694;33.088;2023-04-25T12:21:44;1036.9;;;28.3;35.7
76044;BME280;64740;34.694;33.088;2023-04-25T12:26:45;1036.9;;;28.4;35.6
76044;BME280;64740;34.694;33.088;2023-04-25T12:31:33;1036.9;;;28.4;35.8
76044;BME280;64740;34.694;33.088;2023-04-25T12:36:56;1036.8;;;28.5;35.6
76044;BME280;64740;34.694;33.088;2023-04-25T12:41:42;1036.8;;;28.5;35.7
76044;BME280;64740;34.694;33.088;2023-04-25T12:46:33;1036.7;;;28.5;35.9
76044;BME280;64740;34.694;33.088;2023-04-25T12:51:34;1036.6;;;28.5;35.8
76044;BME280;64740;34.694;33.088;2023-04-25T12:56:41;1036.6;;;28.6;35.6
76044;BME280;64740;34.694;33.088;2023-04-25T13:01:34;1036.5;;;28.4;34.9
76044;BME280;64740;34.694;33.088;2023-04-25T13:06:33;1036.5;;;28.3;34.7
76044;BME280;64740;34.694;33.088;2023-04-25T13:11:29;1036.5;;;28.3;33.6
76044;BME280;64740;34.694;33.088;2023-04-25T13:16:29;1036.5;;;28.3;32.5
76044;BME280;64740;34.694;33.088;2023-04-25T13:21:54;1036.4;;;28.3;33
76044;BME280;64740;34.694;33.088;2023-04-25T13:26:46;1036.4;;;28.3;32.5
76044;BME280;64740;34.694;33.088;2023-04-25T13:31:34;1036.4;;;28.3;32.2
76044;BME280;64740;34.694;33.088;2023-04-25T13:36:56;1036.3;;;28.3;32
76044;BME280;64740;34.694;33.088;2023-04-25T13:41:34;1036.3;;;28.4;31.3
76044;BME280;64740;34.694;33.088;2023-04-25T13:46:22;1036.2;;;28.5;31.4
76044;BME280;64740;34.694;33.088;2023-04-25T13:51:42;1036.2;;;28.4;31
76044;BME280;64740;34.694;33.088;2023-04-25T13:56:54;1036.1;;;28.1;30.9
76044;BME280;64740;34.694;33.088;2023-04-25T14:01:22;1036.1;;;28.2;31.5
76044;BME280;64740;34.694;33.088;2023-04-25T14:06:42;1036;;;28.3;30.5
76044;BME280;64740;34.694;33.088;2023-04-25T14:11:40;1036;;;28.2;30
76044;BME280;64740;34.694;33.088;2023-04-25T14:16:46;1035.9;;;28.3;30
76044;BME280;64740;34.694;33.088;2023-04-25T14:21:12;1035.8;;;28.3;30
76044;BME280;64740;34.694;33.088;2023-04-25T14:26:22;1035.8;;;28.4;30.2
76044;BME280;64740;34.694;33.088;2023-04-25T14:31:52;1035.8;;;28.4;30.7
76044;BME280;64740;34.694;33.088;2023-04-25T14:36:42;1035.7;;;28.4;31.5
76044;BME280;64740;34.694;33.088;2023-04-25T14:41:22;1035.7;;;28.1;32.1
76044;BME280;64740;34.694;33.088;2023-04-25T14:46:56;1035.7;;;28;33.1
76044;BME280;64740;34.694;33.088;2023-04-25T14:51:34;1035.6;;;27.9;33.1
76044;BME280;64740;34.694;33.088;2023-04-25T14:56:12;1035.5;;;27.9;33.1
76044;BME280;64740;34.694;33.088;2023-04-25T15:01:32;1035.5;;;27.8;32.7
76044;BME280;64740;34.694;33.088;2023-04-25T15:06:54;1035.6;;;27.7;33
76044;BME280;64740;34.694;33.088;2023-04-25T15:11:22;1035.5;;;27.7;32.3
76044;BME280;64740;34.694;33.088;2023-04-25T15:16:22;1035.4;;;27.8;31.8
76044;BME280;64740;34.694;33.088;2023-04-25T15:21:58;1035.4;;;28;31.8
76044;BME280;64740;34.694;33.088;2023-04-25T15:26:12;1035.3;;;28.1;32
76044;BME280;64740;34.694;33.088;2023-04-25T15:31:32;1035.3;;;28;32
76044;BME280;64740;34.694;33.088;2023-04-25T15:36:22;1035.3;;;27.8;32.2
76044;BME280;64740;34.694;33.088;2023-04-25T15:41:56;1035.3;;;27.5;32.9
76044;BME280;64740;34.694;33.088;2023-04-25T15:46:42;1035.2;;;27.2;34.1
76044;BME280;64740;34.694;33.088;2023-04-25T15:51:34;1035.2;;;26.8;34.9
76044;BME280;64740;34.694;33.088;2023-04-25T15:56:24;1035.1;;;26.3;36.2
76044;BME280;64740;34.694;33.088;2023-04-25T16:01:30;1035.2;;;25.8;37.1
76044;BME280;64740;34.694;33.088;2023-04-25T16:06:34;1035.2;;;25.3;38.4
76044;BME280;64740;34.694;33.088;2023-04-25T16:11:36;1035.3;;;25;39.5
76044;BME280;64740;34.694;33.088;2023-04-25T16:16:18;1035.3;;;24.7;40.6
76044;BME280;64740;34.694;33.088;2023-04-25T16:21:40;1035.4;;;24.4;41.2
76044;BME280;64740;34.694;33.088;2023-04-25T16:26:54;1035.4;;;24.2;41.9
76044;BME280;64740;34.694;33.088;2023-04-25T16:31:44;1035.4;;;23.9;42.6
76044;BME280;64740;34.694;33.088;2023-04-25T16:36:46;1035.4;;;23.8;43.2
76044;BME280;64740;34.694;33.088;2023-04-25T16:41:42;1035.3;;;23.7;43.7
76044;BME280;64740;34.694;33.088;2023-04-25T16:46:54;1035.5;;;23.6;44.2
76044;BME280;64740;34.694;33.088;2023-04-25T16:51:12;1035.5;;;23.6;44.4
76044;BME280;64740;34.694;33.088;2023-04-25T16:56:44;1035.5;;;23.5;44.7
76044;BME280;64740;34.694;33.088;2023-04-25T17:01:56;1035.5;;;23.4;45.1
76044;BME280;64740;34.694;33.088;2023-04-25T17:06:34;1035.5;;;23.3;45.3
76044;BME280;64740;34.694;33.088;2023-04-25T17:11:56;1035.6;;;23.3;45.6
76044;BME280;64740;34.694;33.088;2023-04-25T17:16:48;1035.6;;;23.2;45.8
76044;BME280;64740;34.694;33.088;2023-04-25T17:21:48;1035.6;;;23.1;46
76044;BME280;64740;34.694;33.088;2023-04-25T17:26:30;1035.7;;;23.1;46.2
76044;BME280;64740;34.694;33.088;2023-04-25T17:31:48;1035.7;;;23;46.4
76044;BME280;64740;34.694;33.088;2023-04-25T17:36:44;1035.7;;;23;46.7
76044;BME280;64740;34.694;33.088;2023-04-25T17:41:42;1035.8;;;22.9;46.9
76044;BME280;64740;34.694;33.088;2023-04-25T17:46:22;1035.9;;;22.9;47
76044;BME280;64740;34.694;33.088;2023-04-25T17:51:56;1036;;;22.9;46.9
76044;BME280;64740;34.694;33.088;2023-04-25T17:56:44;1036.1;;;22.8;47
76044;BME280;64740;34.694;33.088;2023-04-25T18:01:40;1036.1;;;22.8;46.8
76044;BME280;64740;34.694;33.088;2023-04-25T18:06:12;1036.2;;;22.8;46.6
76044;BME280;64740;34.694;33.088;2023-04-25T18:11:42;1036.1;;;22.8;46.6
76044;BME280;64740;34.694;33.088;2023-04-25T18:16:22;1036.1;;;22.8;46.3
76044;BME280;64740;34.694;33.088;2023-04-25T18:21:12;1036.1;;;22.8;46.2
76044;BME280;64740;34.694;33.088;2023-04-25T18:26:56;1036.1;;;22.8;46
76044;BME280;64740;34.694;33.088;2023-04-25T18:31:32;1036.2;;;22.7;45.8
76044;BME280;64740;34.694;33.088;2023-04-25T18:36:30;1036.2;;;22.6;45.6
76044;BME280;64740;34.694;33.088;2023-04-25T18:41:34;1036.3;;;22.6;45.4
76044;BME280;64740;34.694;33.088;2023-04-25T18:46:44;1036.3;;;22.5;45.2
76044;BME280;64740;34.694;33.088;2023-04-25T18:51:42;1036.3;;;22.5;45
76044;BME280;64740;34.694;33.088;2023-04-25T18:56:12;1036.3;;;22.5;44.8
76044;BME280;64740;34.694;33.088;2023-04-25T19:01:24;1036.4;;;22.5;44.8
76044;BME280;64740;34.694;33.088;2023-04-25T19:06:44;1036.5;;;22.6;45
76044;BME280;64740;34.694;33.088;2023-04-25T19:11:12;1036.5;;;22.6;45.1
76044;BME280;64740;34.694;33.088;2023-04-25T19:16:34;1036.5;;;22.6;45.3
76044;BME280;64740;34.694;33.088;2023-04-25T19:21:30;1036.6;;;22.6;45.2
76044;BME280;64740;34.694;33.088;2023-04-25T19:26:12;1036.5;;;22.6;44.9
76044;BME280;64740;34.694;33.088;2023-04-25T19:31:54;1036.5;;;22.5;44.6
76044;BME280;64740;34.694;33.088;2023-04-25T19:36:36;1036.5;;;22.5;44.4
76044;BME280;64740;34.694;33.088;2023-04-25T19:41:22;1036.5;;;22.4;44.3
76044;BME280;64740;34.694;33.088;2023-04-25T19:46:56;1036.5;;;22.4;44.1
76044;BME280;64740;34.694;33.088;2023-04-25T19:51:12;1036.5;;;22.4;44.1
76044;BME280;64740;34.694;33.088;2023-04-25T19:56:24;1036.4;;;22.3;43.8
76044;BME280;64740;34.694;33.088;2023-04-25T20:01:44;1036.4;;;22.2;43.7
76044;BME280;64740;34.694;33.088;2023-04-25T20:06:56;1036.4;;;22.1;43.8
76044;BME280;64740;34.694;33.088;2023-04-25T20:11:34;1036.4;;;22.1;43.9
76044;BME280;64740;34.694;33.088;2023-04-25T20:16:54;1036.4;;;22.1;44.1
76044;BME280;64740;34.694;33.088;2023-04-25T20:21:54;1036.4;;;22.1;43.8
76044;BME280;64740;34.694;33.088;2023-04-25T20:26:46;1036.4;;;22;43.7
76044;BME280;64740;34.694;33.088;2023-04-25T20:31:30;1036.5;;;21.8;43.7
76044;BME280;64740;34.694;33.088;2023-04-25T20:36:46;1036.5;;;21.6;43.9
76044;BME280;64740;34.694;33.088;2023-04-25T20:41:44;1036.4;;;21.6;43.8
76044;BME280;64740;34.694;33.088;2023-04-25T20:46:42;1036.4;;;21.6;43.8
76044;BME280;64740;34.694;33.088;2023-04-25T20:51:22;1036.5;;;21.5;43.9
76044;BME280;64740;34.694;33.088;2023-04-25T20:56:56;1036.6;;;21.3;44.1
76044;BME280;64740;34.694;33.088;2023-04-25T21:01:44;1036.6;;;21.2;44.3
76044;BME280;64740;34.694;33.088;2023-04-25T21:06:12;1036.5;;;21.1;44.4
76044;BME280;64740;34.694;33.088;2023-04-25T21:11:12;1036.5;;;21;44.6
76044;BME280;64740;34.694;33.088;2023-04-25T21:16:42;1036.5;;;21;44.6
76044;BME280;64740;34.694;33.088;2023-04-25T21:21:12;1036.5;;;21;44.8
76044;BME280;64740;34.694;33.088;2023-04-25T21:26:48;1036.5;;;21.1;45
76044;BME280;64740;34.694;33.088;2023-04-25T21:31:48;1036.5;;;21.3;45
76044;BME280;64740;34.694;33.088;2023-04-25T21:36:24;1036.5;;;21.4;44.4
76044;BME280;64740;34.694;33.088;2023-04-25T21:41:34;1036.6;;;21.3;43.9
76044;BME280;64740;34.694;33.088;2023-04-25T21:46:34;1036.6;;;21.3;43.7
76044;BME280;64740;34.694;33.088;2023-04-25T21:51:24;1036.7;;;21.3;44.2
76044;BME280;64740;34.694;33.088;2023-04-25T21:56:42;1036.7;;;21.4;43.9
76044;BME280;64740;34.694;33.088;2023-04-25T22:01:56;1036.6;;;21.4;44
76044;BME280;64740;34.694;33.088;2023-04-25T22:06:34;1036.5;;;21.5;43.6
76044;BME280;64740;34.694;33.088;2023-04-25T22:11:24;1036.5;;;21.3;43.4
76044;BME280;64740;34.694;33.088;2023-04-25T22:16:34;1036.5;;;21.2;43.6
76044;BME280;64740;34.694;33.088;2023-04-25T22:21:48;1036.5;;;21.2;43.6
76044;BME280;64740;34.694;33.088;2023-04-25T22:26:30;1036.4;;;21.3;43.3
76044;BME280;64740;34.694;33.088;2023-04-25T22:31:18;1036.4;;;21.3;43.4
76044;BME280;64740;34.694;33.088;2023-04-25T22:36:56;1036.4;;;21.3;42.6
76044;BME280;64740;34.694;33.088;2023-04-25T22:41:56;1036.5;;;21.3;42.7
76044;BME280;64740;34.694;33.088;2023-04-25T22:46:24;1036.4;;;21.3;42.7
76044;BME280;64740;34.694;33.088;2023-04-25T22:51:56;1036.4;;;21.2;42.7
76044;BME280;64740;34.694;33.088;2023-04-25T22:56:22;1036.4;;;21.2;42.9
76044;BME280;64740;34.694;33.088;2023-04-25T23:01:10;1036.3;;;21.2;42.9
76044;BME280;64740;34.694;33.088;2023-04-25T23:06:32;1036.3;;;21.2;43.1
76044;BME280;64740;34.694;33.088;2023-04-25T23:11:52;1036.3;;;21.3;42.8
76044;BME280;64740;34.694;33.088;2023-04-25T23:16:40;1036.3;;;21.3;42.9
76044;BME280;64740;34.694;33.088;2023-04-25T23:21:22;1036.3;;;21.3;42.8
76044;BME280;64740;34.694;33.088;2023-04-25T23:26:54;1036.3;;;21.2;42.8
76044;BME280;64740;34.694;33.088;2023-04-25T23:31:18;1036.2;;;21.2;43.1
76044;BME280;64740;34.694;33.088;2023-04-25T23:36:15;1036.2;;;21.2;42.7
76044;BME280;64740;34.694;33.088;2023-04-25T23:41:30;1036.3;;;21.1;42.9
76044;BME280;64740;34.694;33.088;2023-04-25T23:46:50;1036.3;;;21.1;43
76044;BME280;64740;34.694;33.088;2023-04-25T23:51:38;1036.2;;;21.1;43
76044;BME280;64740;34.694;33.088;2023-04-25T23:56:08;1036.3;;;21.1;42.7
